sensor_id;sensor_type;location;lat;lon;timestamp;temperature;humidity
31038;DHT22;17702;47.590;7.666;2022-12-29T00:02:02;7.50;99.90
31038;DHT22;17702;47.590;7.666;2022-12-29T00:04:27;7.50;99.90
31038;DHT22;17702;47.590;7.666;2022-12-29T00:06:53;7.60;99.90
31038;DHT22;17702;47.590;7.666;2022-12-29T00:09:19;7.70;99.90
31038;DHT22;17702;47.590;7.666;2022-12-29T00:11:44;7.70;99.90
31038;DHT22;17702;47.590;7.666;2022-12-29T00:14:10;7.60;99.90
31038;DHT22;17702;47.590;7.666;2022-12-29T00:16:55;7.60;99.90
31038;DHT22;17702;47.590;7.666;2022-12-29T00:19:21;7.60;99.90
31038;DHT22;17702;47.590;7.666;2022-12-29T00:22:05;7.60;99.90
31038;DHT22;17702;47.590;7.666;2022-12-29T00:24:50;7.70;99.90
31038;DHT22;17702;47.590;7.666;2022-12-29T00:27:34;7.70;99.90
31038;DHT22;17702;47.590;7.666;2022-12-29T00:30:19;7.80;99.90
31038;DHT22;17702;47.590;7.666;2022-12-29T00:33:10;7.80;99.90
31038;DHT22;17702;47.590;7.666;2022-12-29T00:35:59;7.90;99.90
31038;DHT22;17702;47.590;7.666;2022-12-29T00:38:26;7.90;99.90
31038;DHT22;17702;47.590;7.666;2022-12-29T00:41:10;7.90;99.90
31038;DHT22;17702;47.590;7.666;2022-12-29T00:43:54;7.90;99.90
31038;DHT22;17702;47.590;7.666;2022-12-29T00:46:39;7.90;99.90
31038;DHT22;17702;47.590;7.666;2022-12-29T00:49:05;7.90;99.90
31038;DHT22;17702;47.590;7.666;2022-12-29T00:51:50;7.90;99.90
31038;DHT22;17702;47.590;7.666;2022-12-29T00:54:16;8.00;99.90
31038;DHT22;17702;47.590;7.666;2022-12-29T00:56:42;8.00;99.90
31038;DHT22;17702;47.590;7.666;2022-12-29T00:59:08;8.00;99.90
31038;DHT22;17702;47.590;7.666;2022-12-29T01:01:34;8.00;99.90
31038;DHT22;17702;47.590;7.666;2022-12-29T01:03:59;8.00;99.90
31038;DHT22;17702;47.590;7.666;2022-12-29T01:06:25;8.00;99.90
31038;DHT22;17702;47.590;7.666;2022-12-29T01:08:51;7.90;99.90
31038;DHT22;17702;47.590;7.666;2022-12-29T01:11:39;8.00;99.90
31038;DHT22;17702;47.590;7.666;2022-12-29T01:14:05;8.00;99.90
31038;DHT22;17702;47.590;7.666;2022-12-29T01:16:31;7.90;99.90
31038;DHT22;17702;47.590;7.666;2022-12-29T01:18:56;7.90;99.90
31038;DHT22;17702;47.590;7.666;2022-12-29T01:21:22;7.90;99.90
31038;DHT22;17702;47.590;7.666;2022-12-29T01:23:47;7.90;99.90
31038;DHT22;17702;47.590;7.666;2022-12-29T01:26:14;7.90;99.90
31038;DHT22;17702;47.590;7.666;2022-12-29T01:28:39;8.00;99.90
31038;DHT22;17702;47.590;7.666;2022-12-29T01:31:07;8.00;99.90
31038;DHT22;17702;47.590;7.666;2022-12-29T01:33:33;8.00;99.90
31038;DHT22;17702;47.590;7.666;2022-12-29T01:36:05;8.00;99.90
31038;DHT22;17702;47.590;7.666;2022-12-29T01:38:31;8.10;99.90
31038;DHT22;17702;47.590;7.666;2022-12-29T01:40:57;8.00;99.90
31038;DHT22;17702;47.590;7.666;2022-12-29T01:43:37;8.00;99.90
31038;DHT22;17702;47.590;7.666;2022-12-29T01:46:03;8.10;99.90
31038;DHT22;17702;47.590;7.666;2022-12-29T01:48:29;8.00;99.90
31038;DHT22;17702;47.590;7.666;2022-12-29T01:50:54;8.00;99.90
31038;DHT22;17702;47.590;7.666;2022-12-29T01:53:27;8.10;99.90
31038;DHT22;17702;47.590;7.666;2022-12-29T01:55:56;8.10;99.90
31038;DHT22;17702;47.590;7.666;2022-12-29T01:58:23;8.20;99.90
31038;DHT22;17702;47.590;7.666;2022-12-29T02:00:50;8.30;99.90
31038;DHT22;17702;47.590;7.666;2022-12-29T02:03:16;8.30;99.90
31038;DHT22;17702;47.590;7.666;2022-12-29T02:08:08;8.20;99.90
31038;DHT22;17702;47.590;7.666;2022-12-29T02:10:35;8.20;99.90
31038;DHT22;17702;47.590;7.666;2022-12-29T02:13:01;8.20;99.90
31038;DHT22;17702;47.590;7.666;2022-12-29T02:18:09;8.20;99.90
31038;DHT22;17702;47.590;7.666;2022-12-29T02:20:56;8.10;99.90
31038;DHT22;17702;47.590;7.666;2022-12-29T02:26:07;8.30;99.90
31038;DHT22;17702;47.590;7.666;2022-12-29T02:36:25;8.20;99.90
31038;DHT22;17702;47.590;7.666;2022-12-29T02:38:58;8.30;99.90
31038;DHT22;17702;47.590;7.666;2022-12-29T02:44:10;8.30;99.90
31038;DHT22;17702;47.590;7.666;2022-12-29T02:46:38;8.20;99.90
31038;DHT22;17702;47.590;7.666;2022-12-29T02:49:20;8.30;99.90
31038;DHT22;17702;47.590;7.666;2022-12-29T02:51:51;8.30;99.90
31038;DHT22;17702;47.590;7.666;2022-12-29T02:54:20;8.30;99.90
31038;DHT22;17702;47.590;7.666;2022-12-29T02:57:08;8.30;99.90
31038;DHT22;17702;47.590;7.666;2022-12-29T02:59:34;8.30;99.90
31038;DHT22;17702;47.590;7.666;2022-12-29T03:07:20;8.30;99.90
31038;DHT22;17702;47.590;7.666;2022-12-29T03:12:40;8.30;99.90
31038;DHT22;17702;47.590;7.666;2022-12-29T03:15:33;8.40;99.90
31038;DHT22;17702;47.590;7.666;2022-12-29T03:18:25;8.50;99.90
31038;DHT22;17702;47.590;7.666;2022-12-29T03:20:54;8.50;99.90
31038;DHT22;17702;47.590;7.666;2022-12-29T03:23:20;8.60;99.90
31038;DHT22;17702;47.590;7.666;2022-12-29T03:25:51;8.70;99.90
31038;DHT22;17702;47.590;7.666;2022-12-29T03:28:18;8.80;99.90
31038;DHT22;17702;47.590;7.666;2022-12-29T03:30:46;8.90;99.90
31038;DHT22;17702;47.590;7.666;2022-12-29T03:33:12;9.00;99.90
31038;DHT22;17702;47.590;7.666;2022-12-29T03:35:40;9.00;99.90
31038;DHT22;17702;47.590;7.666;2022-12-29T03:40:31;9.00;99.90
31038;DHT22;17702;47.590;7.666;2022-12-29T03:42:59;9.00;99.90
31038;DHT22;17702;47.590;7.666;2022-12-29T03:45:24;9.10;99.90
31038;DHT22;17702;47.590;7.666;2022-12-29T03:47:50;9.20;99.90
31038;DHT22;17702;47.590;7.666;2022-12-29T03:50:16;9.30;99.90
31038;DHT22;17702;47.590;7.666;2022-12-29T03:52:42;9.30;99.90
31038;DHT22;17702;47.590;7.666;2022-12-29T03:55:07;9.40;99.90
31038;DHT22;17702;47.590;7.666;2022-12-29T03:57:33;9.50;99.90
31038;DHT22;17702;47.590;7.666;2022-12-29T03:59:58;9.50;99.90
31038;DHT22;17702;47.590;7.666;2022-12-29T04:02:24;9.60;99.90
31038;DHT22;17702;47.590;7.666;2022-12-29T04:04:49;9.60;99.90
31038;DHT22;17702;47.590;7.666;2022-12-29T04:07:15;9.60;99.90
31038;DHT22;17702;47.590;7.666;2022-12-29T04:09:40;9.60;99.90
31038;DHT22;17702;47.590;7.666;2022-12-29T04:12:06;9.70;99.90
31038;DHT22;17702;47.590;7.666;2022-12-29T04:14:31;9.80;98.20
31038;DHT22;17702;47.590;7.666;2022-12-29T04:16:57;9.90;97.50
31038;DHT22;17702;47.590;7.666;2022-12-29T04:19:22;10.10;96.70
31038;DHT22;17702;47.590;7.666;2022-12-29T04:21:48;10.20;95.40
31038;DHT22;17702;47.590;7.666;2022-12-29T04:24:13;10.30;95.10
31038;DHT22;17702;47.590;7.666;2022-12-29T04:26:39;10.40;94.60
31038;DHT22;17702;47.590;7.666;2022-12-29T04:29:04;10.50;94.00
31038;DHT22;17702;47.590;7.666;2022-12-29T04:31:30;10.60;93.50
31038;DHT22;17702;47.590;7.666;2022-12-29T04:33:55;10.70;93.50
31038;DHT22;17702;47.590;7.666;2022-12-29T04:36:22;10.70;93.70
31038;DHT22;17702;47.590;7.666;2022-12-29T04:38:48;10.70;93.50
31038;DHT22;17702;47.590;7.666;2022-12-29T04:41:13;10.70;93.80
31038;DHT22;17702;47.590;7.666;2022-12-29T04:43:39;10.70;93.50
31038;DHT22;17702;47.590;7.666;2022-12-29T04:46:04;10.70;93.10
31038;DHT22;17702;47.590;7.666;2022-12-29T04:48:30;10.70;94.10
31038;DHT22;17702;47.590;7.666;2022-12-29T04:50:55;10.60;95.10
31038;DHT22;17702;47.590;7.666;2022-12-29T04:53:21;10.50;96.10
31038;DHT22;17702;47.590;7.666;2022-12-29T04:55:50;10.40;96.90
31038;DHT22;17702;47.590;7.666;2022-12-29T04:58:16;10.30;97.30
31038;DHT22;17702;47.590;7.666;2022-12-29T05:00:42;10.30;97.90
31038;DHT22;17702;47.590;7.666;2022-12-29T05:03:07;10.30;98.00
31038;DHT22;17702;47.590;7.666;2022-12-29T05:05:33;10.30;97.50
31038;DHT22;17702;47.590;7.666;2022-12-29T05:07:58;10.40;95.00
31038;DHT22;17702;47.590;7.666;2022-12-29T05:10:24;10.50;95.00
31038;DHT22;17702;47.590;7.666;2022-12-29T05:12:49;10.60;94.10
31038;DHT22;17702;47.590;7.666;2022-12-29T05:15:15;10.70;93.50
31038;DHT22;17702;47.590;7.666;2022-12-29T05:17:40;11.00;91.50
31038;DHT22;17702;47.590;7.666;2022-12-29T05:20:06;11.10;90.90
31038;DHT22;17702;47.590;7.666;2022-12-29T05:22:32;11.30;91.10
31038;DHT22;17702;47.590;7.666;2022-12-29T05:24:57;11.40;90.40
31038;DHT22;17702;47.590;7.666;2022-12-29T05:27:23;11.50;89.20
31038;DHT22;17702;47.590;7.666;2022-12-29T05:29:48;11.60;88.10
31038;DHT22;17702;47.590;7.666;2022-12-29T05:32:14;11.80;87.10
31038;DHT22;17702;47.590;7.666;2022-12-29T05:34:39;11.80;87.30
31038;DHT22;17702;47.590;7.666;2022-12-29T05:37:05;11.90;86.30
31038;DHT22;17702;47.590;7.666;2022-12-29T05:39:30;11.90;85.30
31038;DHT22;17702;47.590;7.666;2022-12-29T05:41:56;12.00;84.50
31038;DHT22;17702;47.590;7.666;2022-12-29T05:44:21;12.00;85.00
31038;DHT22;17702;47.590;7.666;2022-12-29T05:46:47;12.00;84.00
31038;DHT22;17702;47.590;7.666;2022-12-29T05:49:12;12.00;84.40
31038;DHT22;17702;47.590;7.666;2022-12-29T05:51:38;12.10;84.60
31038;DHT22;17702;47.590;7.666;2022-12-29T05:54:03;12.10;84.30
31038;DHT22;17702;47.590;7.666;2022-12-29T05:56:29;12.10;84.00
31038;DHT22;17702;47.590;7.666;2022-12-29T05:58:54;12.20;84.30
31038;DHT22;17702;47.590;7.666;2022-12-29T06:01:20;12.30;82.60
31038;DHT22;17702;47.590;7.666;2022-12-29T06:03:45;12.30;82.90
31038;DHT22;17702;47.590;7.666;2022-12-29T06:06:11;12.30;83.10
31038;DHT22;17702;47.590;7.666;2022-12-29T06:08:36;12.30;82.10
31038;DHT22;17702;47.590;7.666;2022-12-29T06:11:02;12.40;82.30
31038;DHT22;17702;47.590;7.666;2022-12-29T06:13:27;12.40;81.50
31038;DHT22;17702;47.590;7.666;2022-12-29T06:15:53;12.40;82.10
31038;DHT22;17702;47.590;7.666;2022-12-29T06:18:18;12.40;81.30
31038;DHT22;17702;47.590;7.666;2022-12-29T06:20:44;12.50;81.10
31038;DHT22;17702;47.590;7.666;2022-12-29T06:23:09;12.50;81.70
31038;DHT22;17702;47.590;7.666;2022-12-29T06:25:37;12.40;81.40
31038;DHT22;17702;47.590;7.666;2022-12-29T06:28:02;12.40;81.20
31038;DHT22;17702;47.590;7.666;2022-12-29T06:30:28;12.40;81.60
31038;DHT22;17702;47.590;7.666;2022-12-29T06:32:53;12.40;82.30
31038;DHT22;17702;47.590;7.666;2022-12-29T06:35:20;12.40;81.40
31038;DHT22;17702;47.590;7.666;2022-12-29T06:37:46;12.40;81.50
31038;DHT22;17702;47.590;7.666;2022-12-29T06:40:12;12.40;82.10
31038;DHT22;17702;47.590;7.666;2022-12-29T06:42:37;12.30;82.80
31038;DHT22;17702;47.590;7.666;2022-12-29T06:45:03;12.30;82.20
31038;DHT22;17702;47.590;7.666;2022-12-29T06:47:28;12.40;82.90
31038;DHT22;17702;47.590;7.666;2022-12-29T06:49:54;12.40;82.40
31038;DHT22;17702;47.590;7.666;2022-12-29T06:52:20;12.40;82.00
31038;DHT22;17702;47.590;7.666;2022-12-29T06:54:45;12.40;82.30
31038;DHT22;17702;47.590;7.666;2022-12-29T06:57:11;12.40;81.60
31038;DHT22;17702;47.590;7.666;2022-12-29T06:59:36;12.40;81.60
31038;DHT22;17702;47.590;7.666;2022-12-29T07:02:02;12.50;81.80
31038;DHT22;17702;47.590;7.666;2022-12-29T07:04:28;12.50;80.60
31038;DHT22;17702;47.590;7.666;2022-12-29T07:06:53;12.60;80.50
31038;DHT22;17702;47.590;7.666;2022-12-29T07:09:19;12.60;80.10
31038;DHT22;17702;47.590;7.666;2022-12-29T07:11:45;12.60;79.70
31038;DHT22;17702;47.590;7.666;2022-12-29T07:14:11;12.60;80.10
31038;DHT22;17702;47.590;7.666;2022-12-29T07:16:36;12.70;79.60
31038;DHT22;17702;47.590;7.666;2022-12-29T07:19:02;12.70;78.90
31038;DHT22;17702;47.590;7.666;2022-12-29T07:21:28;12.70;79.20
31038;DHT22;17702;47.590;7.666;2022-12-29T07:23:53;12.70;79.10
31038;DHT22;17702;47.590;7.666;2022-12-29T07:26:19;12.80;79.30
31038;DHT22;17702;47.590;7.666;2022-12-29T07:28:44;12.70;80.50
31038;DHT22;17702;47.590;7.666;2022-12-29T07:31:20;12.70;79.70
31038;DHT22;17702;47.590;7.666;2022-12-29T07:33:46;12.70;79.60
31038;DHT22;17702;47.590;7.666;2022-12-29T07:36:13;12.80;79.50
31038;DHT22;17702;47.590;7.666;2022-12-29T07:38:39;12.80;80.30
31038;DHT22;17702;47.590;7.666;2022-12-29T07:41:04;12.80;79.40
31038;DHT22;17702;47.590;7.666;2022-12-29T07:43:30;12.80;79.30
31038;DHT22;17702;47.590;7.666;2022-12-29T07:45:55;12.80;78.70
31038;DHT22;17702;47.590;7.666;2022-12-29T07:48:21;12.90;79.30
31038;DHT22;17702;47.590;7.666;2022-12-29T07:50:47;12.90;78.90
31038;DHT22;17702;47.590;7.666;2022-12-29T07:53:12;12.90;79.80
31038;DHT22;17702;47.590;7.666;2022-12-29T07:55:38;12.90;79.70
31038;DHT22;17702;47.590;7.666;2022-12-29T07:58:03;12.90;80.10
31038;DHT22;17702;47.590;7.666;2022-12-29T08:00:29;12.90;81.40
31038;DHT22;17702;47.590;7.666;2022-12-29T08:02:54;12.80;83.70
31038;DHT22;17702;47.590;7.666;2022-12-29T08:05:20;12.70;85.40
31038;DHT22;17702;47.590;7.666;2022-12-29T08:07:46;12.70;84.00
31038;DHT22;17702;47.590;7.666;2022-12-29T08:10:12;12.70;83.80
31038;DHT22;17702;47.590;7.666;2022-12-29T08:12:37;12.70;82.40
31038;DHT22;17702;47.590;7.666;2022-12-29T08:15:03;12.70;82.80
31038;DHT22;17702;47.590;7.666;2022-12-29T08:17:29;12.70;83.20
31038;DHT22;17702;47.590;7.666;2022-12-29T08:19:54;12.80;84.40
31038;DHT22;17702;47.590;7.666;2022-12-29T08:22:20;12.80;82.70
31038;DHT22;17702;47.590;7.666;2022-12-29T08:24:46;12.90;82.40
31038;DHT22;17702;47.590;7.666;2022-12-29T08:27:11;12.90;81.70
31038;DHT22;17702;47.590;7.666;2022-12-29T08:29:37;12.90;81.60
31038;DHT22;17702;47.590;7.666;2022-12-29T08:34:00;12.90;81.90
31038;DHT22;17702;47.590;7.666;2022-12-29T08:36:28;12.80;82.60
31038;DHT22;17702;47.590;7.666;2022-12-29T08:38:54;12.90;83.10
31038;DHT22;17702;47.590;7.666;2022-12-29T08:41:19;12.90;84.70
31038;DHT22;17702;47.590;7.666;2022-12-29T08:43:45;12.80;83.50
31038;DHT22;17702;47.590;7.666;2022-12-29T08:46:11;12.90;83.10
31038;DHT22;17702;47.590;7.666;2022-12-29T08:48:36;12.90;82.00
31038;DHT22;17702;47.590;7.666;2022-12-29T08:51:02;13.00;82.60
31038;DHT22;17702;47.590;7.666;2022-12-29T08:53:27;13.10;83.00
31038;DHT22;17702;47.590;7.666;2022-12-29T08:55:57;13.10;81.90
31038;DHT22;17702;47.590;7.666;2022-12-29T08:58:23;13.10;82.30
31038;DHT22;17702;47.590;7.666;2022-12-29T09:00:49;13.20;82.20
31038;DHT22;17702;47.590;7.666;2022-12-29T09:03:14;13.30;81.10
31038;DHT22;17702;47.590;7.666;2022-12-29T09:05:40;13.30;82.10
31038;DHT22;17702;47.590;7.666;2022-12-29T09:08:05;13.40;80.60
31038;DHT22;17702;47.590;7.666;2022-12-29T09:10:31;13.40;81.10
31038;DHT22;17702;47.590;7.666;2022-12-29T09:12:56;13.40;86.70
31038;DHT22;17702;47.590;7.666;2022-12-29T09:15:22;13.80;82.00
31038;DHT22;17702;47.590;7.666;2022-12-29T09:17:47;13.80;81.30
31038;DHT22;17702;47.590;7.666;2022-12-29T09:20:14;13.70;81.50
31038;DHT22;17702;47.590;7.666;2022-12-29T09:22:40;13.70;82.00
31038;DHT22;17702;47.590;7.666;2022-12-29T09:25:05;13.70;81.90
31038;DHT22;17702;47.590;7.666;2022-12-29T09:27:31;13.60;82.50
31038;DHT22;17702;47.590;7.666;2022-12-29T09:29:57;13.60;82.80
31038;DHT22;17702;47.590;7.666;2022-12-29T09:32:22;13.60;82.40
31038;DHT22;17702;47.590;7.666;2022-12-29T09:34:48;13.50;82.70
31038;DHT22;17702;47.590;7.666;2022-12-29T09:37:13;13.50;82.60
31038;DHT22;17702;47.590;7.666;2022-12-29T09:39:38;13.50;83.30
31038;DHT22;17702;47.590;7.666;2022-12-29T09:47:14;13.50;84.20
31038;DHT22;17702;47.590;7.666;2022-12-29T09:49:48;13.40;84.90
31038;DHT22;17702;47.590;7.666;2022-12-29T09:52:31;13.50;85.00
31038;DHT22;17702;47.590;7.666;2022-12-29T09:57:30;13.50;84.70
31038;DHT22;17702;47.590;7.666;2022-12-29T10:00:03;13.50;84.30
31038;DHT22;17702;47.590;7.666;2022-12-29T10:10:35;13.60;85.40
31038;DHT22;17702;47.590;7.666;2022-12-29T10:13:10;13.50;85.90
31038;DHT22;17702;47.590;7.666;2022-12-29T10:18:20;13.50;86.50
31038;DHT22;17702;47.590;7.666;2022-12-29T10:21:10;13.50;87.20
31038;DHT22;17702;47.590;7.666;2022-12-29T10:23:40;13.50;86.60
31038;DHT22;17702;47.590;7.666;2022-12-29T10:26:31;13.50;86.70
31038;DHT22;17702;47.590;7.666;2022-12-29T10:29:03;13.50;89.00
31038;DHT22;17702;47.590;7.666;2022-12-29T10:31:36;13.60;87.00
31038;DHT22;17702;47.590;7.666;2022-12-29T10:34:05;13.60;87.90
31038;DHT22;17702;47.590;7.666;2022-12-29T10:36:39;13.70;86.60
31038;DHT22;17702;47.590;7.666;2022-12-29T10:41:51;13.80;86.20
31038;DHT22;17702;47.590;7.666;2022-12-29T10:44:18;13.70;86.50
31038;DHT22;17702;47.590;7.666;2022-12-29T10:46:46;13.70;86.30
31038;DHT22;17702;47.590;7.666;2022-12-29T10:49:14;13.80;86.60
31038;DHT22;17702;47.590;7.666;2022-12-29T10:51:41;13.80;85.90
31038;DHT22;17702;47.590;7.666;2022-12-29T10:57:23;13.90;85.30
31038;DHT22;17702;47.590;7.666;2022-12-29T10:59:49;13.90;85.70
31038;DHT22;17702;47.590;7.666;2022-12-29T11:02:49;13.80;85.40
31038;DHT22;17702;47.590;7.666;2022-12-29T11:05:10;13.90;84.90
31038;DHT22;17702;47.590;7.666;2022-12-29T11:07:37;13.90;83.90
31038;DHT22;17702;47.590;7.666;2022-12-29T11:12:54;13.80;85.00
31038;DHT22;17702;47.590;7.666;2022-12-29T11:15:20;13.80;84.70
31038;DHT22;17702;47.590;7.666;2022-12-29T11:17:52;13.90;85.10
31038;DHT22;17702;47.590;7.666;2022-12-29T11:20:40;14.00;82.70
31038;DHT22;17702;47.590;7.666;2022-12-29T11:23:05;14.00;83.00
31038;DHT22;17702;47.590;7.666;2022-12-29T11:25:31;14.10;82.80
31038;DHT22;17702;47.590;7.666;2022-12-29T11:30:27;14.00;83.60
31038;DHT22;17702;47.590;7.666;2022-12-29T11:32:53;13.90;81.40
31038;DHT22;17702;47.590;7.666;2022-12-29T11:35:32;13.90;82.30
31038;DHT22;17702;47.590;7.666;2022-12-29T11:37:58;13.90;83.30
31038;DHT22;17702;47.590;7.666;2022-12-29T11:40:23;13.90;81.10
31038;DHT22;17702;47.590;7.666;2022-12-29T11:45:16;13.90;83.10
31038;DHT22;17702;47.590;7.666;2022-12-29T11:47:42;13.80;83.30
31038;DHT22;17702;47.590;7.666;2022-12-29T11:50:15;13.80;84.50
31038;DHT22;17702;47.590;7.666;2022-12-29T11:52:41;13.80;83.70
31038;DHT22;17702;47.590;7.666;2022-12-29T11:55:17;13.80;84.90
31038;DHT22;17702;47.590;7.666;2022-12-29T11:57:43;13.80;84.50
31038;DHT22;17702;47.590;7.666;2022-12-29T12:00:16;13.90;84.40
31038;DHT22;17702;47.590;7.666;2022-12-29T12:02:48;13.90;84.00
31038;DHT22;17702;47.590;7.666;2022-12-29T12:08:05;14.00;83.10
31038;DHT22;17702;47.590;7.666;2022-12-29T12:10:36;14.00;83.80
31038;DHT22;17702;47.590;7.666;2022-12-29T12:15:46;14.10;83.40
31038;DHT22;17702;47.590;7.666;2022-12-29T12:20:58;14.00;84.00
31038;DHT22;17702;47.590;7.666;2022-12-29T12:26:14;14.00;83.90
31038;DHT22;17702;47.590;7.666;2022-12-29T12:31:15;14.00;82.40
31038;DHT22;17702;47.590;7.666;2022-12-29T12:33:42;14.00;83.20
31038;DHT22;17702;47.590;7.666;2022-12-29T12:41:08;13.90;84.40
31038;DHT22;17702;47.590;7.666;2022-12-29T12:43:46;13.90;84.20
31038;DHT22;17702;47.590;7.666;2022-12-29T12:54:04;13.90;85.70
31038;DHT22;17702;47.590;7.666;2022-12-29T12:56:40;13.90;84.70
31038;DHT22;17702;47.590;7.666;2022-12-29T13:09:50;13.80;86.50
31038;DHT22;17702;47.590;7.666;2022-12-29T13:17:18;13.80;84.90
31038;DHT22;17702;47.590;7.666;2022-12-29T13:20:07;13.80;85.70
31038;DHT22;17702;47.590;7.666;2022-12-29T13:32:49;13.80;88.50
31038;DHT22;17702;47.590;7.666;2022-12-29T13:38:22;13.60;90.90
31038;DHT22;17702;47.590;7.666;2022-12-29T13:41:11;13.50;91.50
31038;DHT22;17702;47.590;7.666;2022-12-29T13:43:35;13.60;92.10
31038;DHT22;17702;47.590;7.666;2022-12-29T13:46:05;13.50;93.00
31038;DHT22;17702;47.590;7.666;2022-12-29T13:49:15;13.50;94.80
31038;DHT22;17702;47.590;7.666;2022-12-29T13:51:21;13.40;95.30
31038;DHT22;17702;47.590;7.666;2022-12-29T13:53:54;13.30;95.30
31038;DHT22;17702;47.590;7.666;2022-12-29T13:56:26;13.30;96.00
31038;DHT22;17702;47.590;7.666;2022-12-29T14:04:13;13.00;97.40
31038;DHT22;17702;47.590;7.666;2022-12-29T14:06:39;13.00;97.90
31038;DHT22;17702;47.590;7.666;2022-12-29T14:09:07;13.00;98.80
31038;DHT22;17702;47.590;7.666;2022-12-29T14:11:51;12.90;99.30
31038;DHT22;17702;47.590;7.666;2022-12-29T14:14:21;12.90;99.20
31038;DHT22;17702;47.590;7.666;2022-12-29T14:16:47;12.90;99.30
31038;DHT22;17702;47.590;7.666;2022-12-29T14:19:20;12.80;99.60
31038;DHT22;17702;47.590;7.666;2022-12-29T14:21:53;12.80;99.60
31038;DHT22;17702;47.590;7.666;2022-12-29T14:27:01;12.80;99.90
31038;DHT22;17702;47.590;7.666;2022-12-29T14:29:47;12.70;99.90
31038;DHT22;17702;47.590;7.666;2022-12-29T14:34:54;12.70;99.90
31038;DHT22;17702;47.590;7.666;2022-12-29T14:42:37;12.60;99.90
31038;DHT22;17702;47.590;7.666;2022-12-29T14:47:39;12.60;99.90
31038;DHT22;17702;47.590;7.666;2022-12-29T14:50:07;12.50;99.90
31038;DHT22;17702;47.590;7.666;2022-12-29T14:52:41;12.50;99.90
31038;DHT22;17702;47.590;7.666;2022-12-29T14:57:41;12.50;99.90
31038;DHT22;17702;47.590;7.666;2022-12-29T15:00:12;12.40;99.90
31038;DHT22;17702;47.590;7.666;2022-12-29T15:02:40;12.50;99.90
31038;DHT22;17702;47.590;7.666;2022-12-29T15:05:51;12.50;99.90
31038;DHT22;17702;47.590;7.666;2022-12-29T15:07:57;12.40;99.90
31038;DHT22;17702;47.590;7.666;2022-12-29T15:10:23;12.40;99.90
31038;DHT22;17702;47.590;7.666;2022-12-29T15:12:51;12.40;99.90
31038;DHT22;17702;47.590;7.666;2022-12-29T15:17:43;12.50;99.90
31038;DHT22;17702;47.590;7.666;2022-12-29T15:22:43;12.40;99.90
31038;DHT22;17702;47.590;7.666;2022-12-29T15:25:14;12.40;99.90
31038;DHT22;17702;47.590;7.666;2022-12-29T15:27:40;12.40;99.90
31038;DHT22;17702;47.590;7.666;2022-12-29T15:30:11;12.40;99.90
31038;DHT22;17702;47.590;7.666;2022-12-29T15:32:40;12.50;99.90
31038;DHT22;17702;47.590;7.666;2022-12-29T15:37:48;12.50;99.90
31038;DHT22;17702;47.590;7.666;2022-12-29T15:40:27;12.50;99.90
31038;DHT22;17702;47.590;7.666;2022-12-29T15:45:29;12.60;98.90
31038;DHT22;17702;47.590;7.666;2022-12-29T15:47:55;12.60;98.70
31038;DHT22;17702;47.590;7.666;2022-12-29T15:52:46;12.70;97.80
31038;DHT22;17702;47.590;7.666;2022-12-29T15:55:24;12.80;97.50
31038;DHT22;17702;47.590;7.666;2022-12-29T15:57:51;12.80;97.30
31038;DHT22;17702;47.590;7.666;2022-12-29T16:00:21;12.80;97.50
31038;DHT22;17702;47.590;7.666;2022-12-29T16:02:48;12.90;96.40
31038;DHT22;17702;47.590;7.666;2022-12-29T16:05:17;12.90;96.20
31038;DHT22;17702;47.590;7.666;2022-12-29T16:07:57;13.00;96.60
31038;DHT22;17702;47.590;7.666;2022-12-29T16:12:48;12.90;95.90
31038;DHT22;17702;47.590;7.666;2022-12-29T16:15:14;13.00;95.50
31038;DHT22;17702;47.590;7.666;2022-12-29T16:17:49;13.00;95.50
31038;DHT22;17702;47.590;7.666;2022-12-29T16:20:20;13.00;95.30
31038;DHT22;17702;47.590;7.666;2022-12-29T16:22:47;13.10;94.90
31038;DHT22;17702;47.590;7.666;2022-12-29T16:25:30;13.10;94.70
31038;DHT22;17702;47.590;7.666;2022-12-29T16:27:57;13.10;94.70
31038;DHT22;17702;47.590;7.666;2022-12-29T16:30:27;13.20;94.50
31038;DHT22;17702;47.590;7.666;2022-12-29T16:33:00;13.10;94.50
31038;DHT22;17702;47.590;7.666;2022-12-29T16:35:26;13.10;94.90
31038;DHT22;17702;47.590;7.666;2022-12-29T16:40:49;13.10;94.70
31038;DHT22;17702;47.590;7.666;2022-12-29T16:43:20;13.10;94.60
31038;DHT22;17702;47.590;7.666;2022-12-29T16:48:24;13.10;94.70
31038;DHT22;17702;47.590;7.666;2022-12-29T16:50:50;13.00;95.20
31038;DHT22;17702;47.590;7.666;2022-12-29T16:53:26;13.00;95.80
31038;DHT22;17702;47.590;7.666;2022-12-29T16:55:53;12.90;96.30
31038;DHT22;17702;47.590;7.666;2022-12-29T16:58:26;12.90;97.00
31038;DHT22;17702;47.590;7.666;2022-12-29T17:00:54;12.80;97.10
31038;DHT22;17702;47.590;7.666;2022-12-29T17:03:21;12.80;97.20
31038;DHT22;17702;47.590;7.666;2022-12-29T17:05:47;12.80;97.00
31038;DHT22;17702;47.590;7.666;2022-12-29T17:08:20;12.80;96.70
31038;DHT22;17702;47.590;7.666;2022-12-29T17:10:49;12.80;96.60
31038;DHT22;17702;47.590;7.666;2022-12-29T17:13:33;12.80;96.20
31038;DHT22;17702;47.590;7.666;2022-12-29T17:15:59;12.80;96.80
31038;DHT22;17702;47.590;7.666;2022-12-29T17:18:24;12.80;96.80
31038;DHT22;17702;47.590;7.666;2022-12-29T17:20:50;12.80;96.70
31038;DHT22;17702;47.590;7.666;2022-12-29T17:23:15;12.80;96.50
31038;DHT22;17702;47.590;7.666;2022-12-29T17:25:41;12.70;96.90
31038;DHT22;17702;47.590;7.666;2022-12-29T17:30:41;12.80;96.40
31038;DHT22;17702;47.590;7.666;2022-12-29T17:33:09;12.70;96.60
31038;DHT22;17702;47.590;7.666;2022-12-29T17:35:35;12.70;96.80
31038;DHT22;17702;47.590;7.666;2022-12-29T17:38:01;12.60;97.00
31038;DHT22;17702;47.590;7.666;2022-12-29T17:40:27;12.60;97.30
31038;DHT22;17702;47.590;7.666;2022-12-29T17:42:55;12.60;97.50
31038;DHT22;17702;47.590;7.666;2022-12-29T17:45:25;12.50;97.80
31038;DHT22;17702;47.590;7.666;2022-12-29T17:47:51;12.50;97.90
31038;DHT22;17702;47.590;7.666;2022-12-29T17:50:17;12.60;97.10
31038;DHT22;17702;47.590;7.666;2022-12-29T17:52:45;12.60;95.60
31038;DHT22;17702;47.590;7.666;2022-12-29T17:55:14;12.70;95.60
31038;DHT22;17702;47.590;7.666;2022-12-29T17:57:40;12.60;95.40
31038;DHT22;17702;47.590;7.666;2022-12-29T18:00:05;12.70;94.80
31038;DHT22;17702;47.590;7.666;2022-12-29T18:02:32;12.60;95.00
31038;DHT22;17702;47.590;7.666;2022-12-29T18:04:58;12.60;95.40
31038;DHT22;17702;47.590;7.666;2022-12-29T18:07:27;12.60;94.60
31038;DHT22;17702;47.590;7.666;2022-12-29T18:09:53;12.60;94.60
31038;DHT22;17702;47.590;7.666;2022-12-29T18:14:50;12.70;94.40
31038;DHT22;17702;47.590;7.666;2022-12-29T18:17:15;12.70;94.30
31038;DHT22;17702;47.590;7.666;2022-12-29T18:19:41;12.60;94.70
31038;DHT22;17702;47.590;7.666;2022-12-29T18:22:07;12.60;95.20
31038;DHT22;17702;47.590;7.666;2022-12-29T18:24:32;12.60;95.20
31038;DHT22;17702;47.590;7.666;2022-12-29T18:26:58;12.60;95.60
31038;DHT22;17702;47.590;7.666;2022-12-29T18:29:23;12.60;95.80